Time;durP1;ratioP1;P1;durP2;ratioP2;P2;SDS_P1;SDS_P2;PMS_P1;PMS_P2;Temp;Humidity;BMP_temperature;BMP_pressure;BME280_temperature;BME280_humidity;BME280_pressure;Samples;Min_cycle;Max_cycle;Signal;HPM_P1;HPM_P2
2022/03/03 00:01:50;;;;;;;50.70;26.47;;;1.60;75.20;;;;;;5051541;28;20241;-67
2022/03/03 00:04:19;;;;;;;48.87;26.63;;;1.60;75.70;;;;;;5045476;28;20206;-67
2022/03/03 00:06:46;;;;;;;48.80;27.03;;;1.50;76.20;;;;;;5044656;28;20218;-67
2022/03/03 00:09:14;;;;;;;44.83;26.17;;;1.50;76.60;;;;;;5052707;28;20662;-68
2022/03/03 00:11:41;;;;;;;54.20;27.20;;;1.50;77.10;;;;;;5052871;28;20271;-68
2022/03/03 00:14:08;;;;;;;52.67;28.50;;;1.50;77.40;;;;;;5052797;28;20711;-67
2022/03/03 00:16:35;;;;;;;52.53;28.40;;;1.50;77.60;;;;;;5051559;28;20198;-67
2022/03/03 00:19:02;;;;;;;50.77;27.37;;;1.50;77.80;;;;;;5048352;28;20589;-67
2022/03/03 00:21:29;;;;;;;50.73;26.00;;;1.50;78.10;;;;;;5047816;28;20230;-67
2022/03/03 00:23:56;;;;;;;51.17;27.00;;;1.50;78.40;;;;;;5042219;28;20285;-67
2022/03/03 00:26:24;;;;;;;56.87;28.40;;;1.40;78.60;;;;;;5043433;28;20298;-68
2022/03/03 00:28:51;;;;;;;48.87;27.57;;;1.50;79.10;;;;;;5048018;28;20838;-68
2022/03/03 00:31:18;;;;;;;50.40;25.87;;;1.40;79.40;;;;;;5053639;28;20240;-69
2022/03/03 00:33:45;;;;;;;44.57;26.20;;;1.50;79.90;;;;;;5053358;28;20226;-68
2022/03/03 00:36:12;;;;;;;47.27;26.83;;;1.50;80.00;;;;;;5052066;28;20210;-68
2022/03/03 00:38:39;;;;;;;49.70;27.27;;;1.50;80.00;;;;;;5051923;28;20256;-68
2022/03/03 00:41:06;;;;;;;47.60;25.80;;;1.50;80.00;;;;;;5052837;28;20210;-69
2022/03/03 00:43:34;;;;;;;45.83;26.33;;;1.50;80.50;;;;;;5015018;28;1081221;-68
2022/03/03 00:46:01;;;;;;;51.57;26.50;;;1.50;80.70;;;;;;5052652;28;20300;-68
2022/03/03 00:48:28;;;;;;;46.17;26.23;;;1.50;80.80;;;;;;5052485;28;20238;-67
2022/03/03 00:50:55;;;;;;;54.23;26.80;;;1.50;81.20;;;;;;5049514;28;20285;-68
2022/03/03 00:53:23;;;;;;;46.97;25.00;;;1.50;81.50;;;;;;5053812;28;20224;-68
2022/03/03 00:55:50;;;;;;;52.33;27.00;;;1.60;81.70;;;;;;5052381;28;20222;-67
2022/03/03 00:58:17;;;;;;;52.20;26.83;;;1.60;81.90;;;;;;5050696;28;20294;-67
2022/03/03 01:00:45;;;;;;;47.57;25.50;;;1.60;81.90;;;;;;5050368;28;20308;-67
2022/03/03 01:03:12;;;;;;;46.73;26.73;;;1.60;81.90;;;;;;5053281;28;20582;-67
2022/03/03 01:05:39;;;;;;;50.13;27.20;;;1.60;82.10;;;;;;5046415;28;20199;-67
2022/03/03 01:08:10;;;;;;;50.47;25.43;;;1.60;82.10;;;;;;5056338;28;20296;-67
2022/03/03 01:10:37;;;;;;;56.50;27.17;;;1.60;82.30;;;;;;5054366;28;20206;-67
2022/03/03 01:13:04;;;;;;;47.93;26.93;;;1.60;82.30;;;;;;5049594;28;20317;-67
2022/03/03 01:15:31;;;;;;;46.30;27.23;;;1.60;82.50;;;;;;5050804;28;20297;-67
2022/03/03 01:17:59;;;;;;;45.63;25.93;;;1.60;82.40;;;;;;5046162;28;20240;-67
2022/03/03 01:20:27;;;;;;;50.37;27.00;;;1.50;82.50;;;;;;5046893;28;20657;-66
2022/03/03 01:22:54;;;;;;;47.07;26.57;;;1.50;82.50;;;;;;5048898;28;20214;-68
2022/03/03 01:25:21;;;;;;;46.93;25.83;;;1.50;82.80;;;;;;5057579;28;20233;-67
2022/03/03 01:27:48;;;;;;;49.33;26.07;;;1.40;83.20;;;;;;5052006;28;20214;-68
2022/03/03 01:30:14;;;;;;;45.33;26.30;;;1.40;83.30;;;;;;5052111;28;20202;-67
2022/03/03 01:32:41;;;;;;;44.63;25.93;;;1.30;83.50;;;;;;5043550;28;20210;-67
2022/03/03 01:35:10;;;;;;;42.20;24.93;;;1.20;83.50;;;;;;5064827;28;20227;-68
2022/03/03 01:37:37;;;;;;;49.30;25.13;;;1.20;84.20;;;;;;5059190;28;20227;-67
2022/03/03 01:40:05;;;;;;;52.77;26.37;;;1.10;84.70;;;;;;5053923;28;20258;-66
2022/03/03 01:42:32;;;;;;;48.20;26.27;;;1.10;85.30;;;;;;5046785;28;20263;-66
2022/03/03 01:44:59;;;;;;;45.83;25.57;;;1.00;86.00;;;;;;5056189;28;20312;-67
2022/03/03 01:47:27;;;;;;;49.10;26.53;;;1.00;86.80;;;;;;5052889;28;20234;-67
2022/03/03 01:49:55;;;;;;;46.43;24.97;;;0.90;87.50;;;;;;5054392;28;20206;-67
2022/03/03 01:52:24;;;;;;;50.57;27.23;;;0.90;87.80;;;;;;5055358;28;20237;-67
2022/03/03 01:54:52;;;;;;;48.87;27.30;;;0.50;88.00;;;;;;5056679;28;20546;-67
2022/03/03 01:57:21;;;;;;;52.07;26.77;;;0.90;89.10;;;;;;5055320;28;20289;-68
2022/03/03 01:59:48;;;;;;;47.67;25.93;;;0.90;89.50;;;;;;5054889;28;20256;-67
2022/03/03 02:02:17;;;;;;;44.07;25.67;;;0.90;89.80;;;;;;5054626;28;20600;-68
2022/03/03 02:04:44;;;;;;;45.00;24.83;;;0.90;89.80;;;;;;5054512;28;20202;-67
2022/03/03 02:07:11;;;;;;;51.73;27.80;;;0.90;90.00;;;;;;5051973;28;20234;-68
2022/03/03 02:09:41;;;;;;;51.27;27.27;;;0.90;90.20;;;;;;5063274;28;20213;-68
2022/03/03 02:12:08;;;;;;;49.17;26.30;;;0.80;90.40;;;;;;5050260;28;20220;-68
2022/03/03 02:14:42;;;;;;;47.20;27.50;;;0.80;90.60;;;;;;5054988;28;20226;-69
2022/03/03 02:17:09;;;;;;;51.77;29.60;;;0.80;90.70;;;;;;5053485;28;20293;-69
2022/03/03 02:19:36;;;;;;;81.43;43.40;;;0.80;91.00;;;;;;5046789;28;20670;-68
2022/03/03 02:22:05;;;;;;;99.33;54.33;;;0.80;91.20;;;;;;5046040;28;20311;-68
2022/03/03 02:24:32;;;;;;;101.63;57.40;;;0.80;91.30;;;;;;5045738;28;20208;-69
2022/03/03 02:27:01;;;;;;;103.47;57.90;;;0.80;91.60;;;;;;5058718;28;20273;-68
2022/03/03 02:29:28;;;;;;;96.80;53.70;;;0.80;91.80;;;;;;5054739;28;20209;-68
2022/03/03 02:31:55;;;;;;;89.30;46.27;;;0.80;92.00;;;;;;5054312;28;20230;-68
2022/03/03 02:34:23;;;;;;;81.50;42.13;;;0.70;92.20;;;;;;5043353;28;20206;-67
2022/03/03 02:36:50;;;;;;;69.93;37.50;;;0.70;92.50;;;;;;5051721;28;20632;-68
2022/03/03 02:39:18;;;;;;;76.13;38.30;;;0.70;92.70;;;;;;5053702;28;20213;-67
2022/03/03 02:41:45;;;;;;;65.93;35.30;;;0.70;93.60;;;;;;5062822;28;20746;-68
2022/03/03 02:44:12;;;;;;;55.53;31.73;;;0.70;93.60;;;;;;5040017;28;20256;-68
2022/03/03 02:46:39;;;;;;;61.67;31.23;;;0.70;93.90;;;;;;5042720;28;20245;-68
2022/03/03 02:49:06;;;;;;;51.33;28.47;;;0.70;94.10;;;;;;5053238;28;20591;-68
2022/03/03 02:51:33;;;;;;;52.43;29.87;;;0.70;94.30;;;;;;5052775;28;20293;-68
2022/03/03 02:54:00;;;;;;;50.07;28.63;;;0.60;94.40;;;;;;5052096;28;20313;-67
2022/03/03 02:56:29;;;;;;;48.83;26.83;;;0.60;94.60;;;;;;5054846;28;20217;-68
2022/03/03 02:58:55;;;;;;;54.80;28.07;;;0.60;95.10;;;;;;5049494;28;20206;-68
2022/03/03 03:01:21;;;;;;;47.10;26.60;;;0.60;95.10;;;;;;5052674;28;20292;-68
2022/03/03 03:03:48;;;;;;;48.53;27.50;;;0.60;95.00;;;;;;5046999;28;20214;-68
2022/03/03 03:06:15;;;;;;;50.47;27.33;;;0.50;95.10;;;;;;5049607;28;20238;-68
2022/03/03 03:08:43;;;;;;;48.67;26.53;;;0.50;95.30;;;;;;5055379;28;20656;-68
2022/03/03 03:11:10;;;;;;;48.90;26.83;;;0.50;95.50;;;;;;5058090;28;20241;-68
2022/03/03 03:13:38;;;;;;;52.87;27.50;;;0.50;95.70;;;;;;5060184;28;20641;-68
2022/03/03 03:16:06;;;;;;;47.17;25.93;;;0.40;95.90;;;;;;5046594;28;20316;-68
2022/03/03 03:18:33;;;;;;;47.60;25.73;;;0.40;96.10;;;;;;5045761;28;20293;-68
2022/03/03 03:21:00;;;;;;;46.60;27.17;;;0.30;96.30;;;;;;5053617;28;20747;-68
2022/03/03 03:23:27;;;;;;;44.90;25.50;;;0.40;96.70;;;;;;5052822;28;20747;-67
2022/03/03 03:25:55;;;;;;;44.57;26.80;;;0.40;96.80;;;;;;5053315;28;20810;-68
2022/03/03 03:28:23;;;;;;;47.70;26.53;;;0.30;96.70;;;;;;5043233;28;20221;-68
2022/03/03 03:30:52;;;;;;;46.23;26.70;;;0.40;96.80;;;;;;5056756;28;20214;-69
2022/03/03 03:33:19;;;;;;;51.73;26.63;;;0.40;97.30;;;;;;5052948;28;20727;-68
2022/03/03 03:35:46;;;;;;;53.43;26.17;;;0.40;97.60;;;;;;5040060;28;20301;-68
2022/03/03 03:38:13;;;;;;;43.70;25.07;;;0.40;97.80;;;;;;5052004;28;20212;-67
2022/03/03 03:40:40;;;;;;;49.53;27.33;;;0.40;97.90;;;;;;5043502;28;20301;-68
2022/03/03 03:43:08;;;;;;;48.90;26.27;;;0.40;98.00;;;;;;5045694;28;20287;-68
2022/03/03 03:45:35;;;;;;;43.53;25.43;;;0.40;98.10;;;;;;5044341;28;20550;-68
2022/03/03 03:48:04;;;;;;;47.53;25.73;;;0.40;98.20;;;;;;5049937;28;20213;-68
2022/03/03 03:50:31;;;;;;;48.50;25.17;;;0.50;98.20;;;;;;5046149;28;20236;-68
2022/03/03 03:52:58;;;;;;;45.47;25.90;;;0.50;98.20;;;;;;5052602;28;20206;-68
2022/03/03 03:55:25;;;;;;;45.43;25.43;;;0.40;98.20;;;;;;5052153;28;20221;-68
2022/03/03 03:57:52;;;;;;;50.77;25.57;;;0.40;98.40;;;;;;5046799;28;20229;-68
2022/03/03 04:00:19;;;;;;;47.07;26.63;;;0.40;98.50;;;;;;5052255;28;20213;-68
2022/03/03 04:02:47;;;;;;;47.30;25.23;;;0.40;98.60;;;;;;5051889;28;20300;-68
2022/03/03 04:05:15;;;;;;;53.43;25.57;;;0.40;98.80;;;;;;5047649;28;20275;-68
2022/03/03 04:07:42;;;;;;;41.00;24.97;;;0.30;98.80;;;;;;5046261;28;20607;-67
2022/03/03 04:10:11;;;;;;;45.43;26.03;;;0.30;98.80;;;;;;5060670;28;20619;-68
2022/03/03 04:12:38;;;;;;;45.87;24.60;;;0.40;99.10;;;;;;5052232;28;20264;-67
2022/03/03 04:15:06;;;;;;;48.23;25.93;;;0.30;99.30;;;;;;5042727;28;20222;-67
2022/03/03 04:17:33;;;;;;;46.40;25.17;;;0.30;99.50;;;;;;5046347;28;20289;-67
2022/03/03 04:19:59;;;;;;;52.30;25.27;;;0.40;99.70;;;;;;5046455;28;20305;-68
2022/03/03 04:22:28;;;;;;;46.37;25.90;;;0.40;99.70;;;;;;5053256;28;20247;-68
2022/03/03 04:24:55;;;;;;;43.60;25.63;;;0.40;99.70;;;;;;5051317;28;20297;-69
2022/03/03 04:27:21;;;;;;;49.43;26.37;;;0.40;99.80;;;;;;5051628;28;20206;-68
2022/03/03 04:29:48;;;;;;;45.07;26.13;;;0.40;99.70;;;;;;5051421;28;20210;-68
2022/03/03 04:32:15;;;;;;;47.67;27.17;;;0.40;99.80;;;;;;5052280;28;20209;-70
2022/03/03 04:34:42;;;;;;;47.07;24.77;;;0.40;99.80;;;;;;5052349;28;20283;-68
2022/03/03 04:37:09;;;;;;;45.07;26.07;;;0.40;99.90;;;;;;5051992;28;20317;-68
2022/03/03 04:39:37;;;;;;;44.97;25.53;;;0.40;99.90;;;;;;5059251;28;20227;-68
2022/03/03 04:42:05;;;;;;;50.23;27.87;;;0.40;99.90;;;;;;5052152;28;20217;-67
2022/03/03 04:44:32;;;;;;;47.37;26.73;;;0.40;99.90;;;;;;5049715;28;20260;-68
2022/03/03 04:46:59;;;;;;;45.47;26.70;;;0.40;99.90;;;;;;5044336;28;20240;-68
2022/03/03 04:49:26;;;;;;;49.60;26.50;;;0.40;99.90;;;;;;5052266;28;20602;-68
2022/03/03 04:51:54;;;;;;;49.00;26.53;;;0.40;99.90;;;;;;5048227;28;20222;-68
2022/03/03 04:54:21;;;;;;;51.73;26.53;;;0.40;99.90;;;;;;5046964;28;20302;-67
2022/03/03 04:56:51;;;;;;;49.53;26.57;;;0.40;99.90;;;;;;5041681;28;20222;-68
2022/03/03 04:59:18;;;;;;;50.20;25.27;;;0.40;99.90;;;;;;5047541;28;20206;-68
2022/03/03 05:01:45;;;;;;;47.93;26.37;;;0.40;99.90;;;;;;5052333;28;20383;-68
2022/03/03 05:04:12;;;;;;;45.33;26.37;;;0.40;99.90;;;;;;5051303;28;20741;-67
2022/03/03 05:06:39;;;;;;;55.50;26.50;;;0.40;99.90;;;;;;5052099;28;20288;-68
2022/03/03 05:09:06;;;;;;;46.20;26.47;;;0.30;99.90;;;;;;5059459;28;20209;-68
2022/03/03 05:11:32;;;;;;;46.83;25.70;;;0.30;99.90;;;;;;5054351;28;20281;-69
2022/03/03 05:14:01;;;;;;;51.00;27.10;;;0.30;99.90;;;;;;5045768;28;20558;-68
2022/03/03 05:16:27;;;;;;;46.63;28.20;;;0.30;99.90;;;;;;5054768;28;20678;-68
2022/03/03 05:18:54;;;;;;;46.40;27.67;;;0.30;99.90;;;;;;5050945;28;20220;-68
2022/03/03 05:21:21;;;;;;;55.23;28.30;;;0.30;99.90;;;;;;5055553;28;20322;-68
2022/03/03 05:23:48;;;;;;;49.80;29.07;;;0.30;99.90;;;;;;5053425;28;20538;-68
2022/03/03 05:26:15;;;;;;;56.57;30.40;;;0.20;99.90;;;;;;5046391;28;20202;-68
2022/03/03 05:28:43;;;;;;;56.37;30.40;;;0.20;99.90;;;;;;5052901;28;20581;-69
2022/03/03 05:31:11;;;;;;;55.63;30.20;;;0.20;99.90;;;;;;5054134;28;20220;-68
2022/03/03 05:33:38;;;;;;;61.00;32.17;;;0.20;99.90;;;;;;5054062;28;20743;-68
2022/03/03 05:36:07;;;;;;;54.93;31.47;;;0.40;99.90;;;;;;5055183;28;20238;-67
2022/03/03 05:38:35;;;;;;;57.57;31.83;;;0.20;99.90;;;;;;5045165;28;20542;-67
2022/03/03 05:41:03;;;;;;;57.63;32.47;;;0.20;99.90;;;;;;5055245;28;20366;-67
2022/03/03 05:43:31;;;;;;;62.00;33.40;;;0.20;99.90;;;;;;5053971;28;20619;-68
2022/03/03 05:45:59;;;;;;;60.90;32.70;;;0.20;99.90;;;;;;5054416;28;20217;-67
2022/03/03 05:48:27;;;;;;;62.50;32.77;;;0.20;99.90;;;;;;5052654;28;20220;-67
2022/03/03 05:50:55;;;;;;;56.90;32.40;;;0.20;99.90;;;;;;5054692;28;20655;-68
2022/03/03 05:53:23;;;;;;;56.93;31.37;;;0.30;99.90;;;;;;5054436;28;20202;-67
2022/03/03 05:55:52;;;;;;;60.97;33.27;;;0.20;99.90;;;;;;5054908;28;20233;-67
2022/03/03 05:58:20;;;;;;;64.00;33.73;;;0.20;99.90;;;;;;5052393;28;20206;-67
2022/03/03 06:00:54;;;;;;;59.27;34.87;;;0.30;99.90;;;;;;5048811;28;20206;-68
2022/03/03 06:03:22;;;;;;;63.07;33.83;;;0.40;99.90;;;;;;5049821;28;20262;-67
2022/03/03 06:05:53;;;;;;;66.40;35.67;;;0.60;99.90;;;;;;5054556;28;20248;-67
2022/03/03 06:08:26;;;;;;;58.43;34.20;;;0.70;99.90;;;;;;5054812;28;20216;-67
2022/03/03 06:10:54;;;;;;;64.10;35.53;;;0.90;99.90;;;;;;5060106;28;20213;-67
2022/03/03 06:13:23;;;;;;;62.50;34.17;;;0.90;99.90;;;;;;5059663;28;20442;-68
2022/03/03 06:15:51;;;;;;;62.50;34.17;;;0.90;99.90;;;;;;5054439;28;20228;-69
2022/03/03 06:18:20;;;;;;;72.00;35.93;;;0.80;99.90;;;;;;5050872;28;20213;-67
2022/03/03 06:20:50;;;;;;;64.83;35.10;;;0.80;99.90;;;;;;5058449;28;20236;-68
2022/03/03 06:23:19;;;;;;;65.80;35.90;;;0.80;99.90;;;;;;5057110;28;20297;-68
2022/03/03 06:25:46;;;;;;;61.37;34.50;;;0.90;99.90;;;;;;5060619;28;20655;-67
2022/03/03 06:28:13;;;;;;;67.53;35.20;;;0.90;99.90;;;;;;5058331;28;20718;-67
2022/03/03 06:30:40;;;;;;;69.93;36.03;;;1.00;99.90;;;;;;5056778;28;20830;-68
2022/03/03 06:33:07;;;;;;;65.37;35.90;;;1.20;99.90;;;;;;5055360;28;20269;-68
2022/03/03 06:35:36;;;;;;;66.67;36.60;;;1.40;99.90;;;;;;5061453;28;20209;-68
2022/03/03 06:38:06;;;;;;;66.00;35.23;;;1.50;99.90;;;;;;5053790;28;20216;-68
2022/03/03 06:40:35;;;;;;;62.23;34.77;;;1.40;99.90;;;;;;5060758;28;20281;-69
2022/03/03 06:43:02;;;;;;;66.93;36.87;;;1.40;99.90;;;;;;5046810;28;20216;-70
2022/03/03 06:45:30;;;;;;;66.33;35.53;;;1.40;99.90;;;;;;5053431;28;20241;-69
2022/03/03 06:47:58;;;;;;;73.30;38.00;;;1.40;99.90;;;;;;5054870;28;20292;-70
2022/03/03 06:50:25;;;;;;;62.87;35.90;;;1.50;99.90;;;;;;5062245;28;20610;-70
2022/03/03 06:52:53;;;;;;;57.00;33.43;;;1.50;99.90;;;;;;5055596;28;20205;-69
2022/03/03 06:55:22;;;;;;;73.70;36.73;;;1.60;99.90;;;;;;5053963;28;20651;-69
2022/03/03 06:57:54;;;;;;;62.57;34.27;;;1.70;99.90;;;;;;5058862;28;20222;-69
2022/03/03 07:00:24;;;;;;;68.27;35.83;;;1.80;99.90;;;;;;5053822;28;20288;-70
2022/03/03 07:02:52;;;;;;;62.27;35.50;;;1.90;99.90;;;;;;5053028;28;20214;-70
2022/03/03 07:05:19;;;;;;;61.90;35.37;;;2.10;99.90;;;;;;5055439;28;20267;-70
2022/03/03 07:07:48;;;;;;;69.40;35.47;;;2.20;99.90;;;;;;5043543;28;20206;-69
2022/03/03 07:10:19;;;;;;;66.23;36.30;;;2.40;99.90;;;;;;5058676;28;20205;-69
2022/03/03 07:12:46;;;;;;;63.83;34.80;;;2.70;99.90;;;;;;5051337;28;20201;-71
2022/03/03 07:15:14;;;;;;;66.43;36.67;;;2.80;99.90;;;;;;5052987;28;20260;-71
2022/03/03 07:17:47;;;;;;;69.30;35.00;;;3.00;99.90;;;;;;5058198;28;20229;-71
2022/03/03 07:20:18;;;;;;;66.73;36.57;;;3.10;99.90;;;;;;5054227;28;20587;-71
2022/03/03 07:23:04;;;;;;;63.23;36.10;;;3.10;99.80;;;;;;5049158;28;20212;-70
2022/03/03 07:25:43;;;;;;;61.60;34.63;;;3.10;99.20;;;;;;5055657;28;20239;-70
2022/03/03 07:28:12;;;;;;;57.63;35.07;;;3.20;99.20;;;;;;5059379;28;20217;-69
2022/03/03 07:30:42;;;;;;;70.20;36.93;;;3.40;99.80;;;;;;5062845;28;20557;-73
2022/03/03 07:33:14;;;;;;;63.17;35.63;;;4.00;99.90;;;;;;5062354;28;20229;-67
2022/03/03 07:35:43;;;;;;;58.17;33.83;;;4.60;98.10;;;;;;5055073;28;20221;-71
2022/03/03 07:38:14;;;;;;;59.67;34.27;;;4.80;96.50;;;;;;5049534;28;20209;-70
2022/03/03 07:40:43;;;;;;;62.07;34.50;;;4.90;95.40;;;;;;5052980;28;20718;-72
2022/03/03 07:43:10;;;;;;;59.80;34.93;;;5.00;94.60;;;;;;5056212;28;20216;-71
2022/03/03 07:45:38;;;;;;;59.63;34.33;;;5.00;94.00;;;;;;5053823;28;20728;-71
2022/03/03 07:48:07;;;;;;;57.63;34.90;;;5.00;93.60;;;;;;5051343;28;20332;-71
2022/03/03 07:50:39;;;;;;;59.43;34.80;;;5.10;93.10;;;;;;5049217;28;20201;-71
2022/03/03 07:53:07;;;;;;;63.13;35.43;;;5.20;92.60;;;;;;5048469;28;20693;-74
2022/03/03 07:55:39;;;;;;;59.47;34.93;;;5.20;91.90;;;;;;5053358;28;20202;-70
2022/03/03 07:58:12;;;;;;;60.30;35.47;;;5.40;91.60;;;;;;5047575;28;20931;-71
2022/03/03 08:00:43;;;;;;;59.63;34.03;;;5.60;91.10;;;;;;5052512;28;20224;-71
2022/03/03 08:03:13;;;;;;;60.73;33.50;;;5.70;90.40;;;;;;5041388;28;20210;-75
2022/03/03 08:05:43;;;;;;;62.00;33.67;;;5.90;89.40;;;;;;5047781;28;20229;-70
2022/03/03 08:08:14;;;;;;;59.77;33.07;;;6.10;87.70;;;;;;5055928;28;20256;-72
2022/03/03 08:10:42;;;;;;;57.00;32.23;;;6.30;84.90;;;;;;5051241;28;20666;-72
2022/03/03 08:13:11;;;;;;;50.03;29.63;;;6.40;83.00;;;;;;5052606;28;20292;-75
2022/03/03 08:15:39;;;;;;;52.47;30.27;;;6.60;81.10;;;;;;5053971;28;20202;-72
2022/03/03 08:18:07;;;;;;;49.90;29.70;;;6.60;78.60;;;;;;5060890;28;20244;-70
2022/03/03 08:20:38;;;;;;;51.83;30.83;;;6.60;77.30;;;;;;5056152;28;20225;-69
2022/03/03 08:23:06;;;;;;;49.37;28.63;;;6.30;75.10;;;;;;5059627;28;20718;-71
2022/03/03 08:25:34;;;;;;;48.27;28.03;;;6.10;74.90;;;;;;5055013;28;20584;-71
2022/03/03 08:28:02;;;;;;;47.23;25.90;;;6.00;74.60;;;;;;5058038;28;20198;-68
2022/03/03 08:30:30;;;;;;;53.27;28.77;;;6.00;74.20;;;;;;5055782;28;20214;-67
2022/03/03 08:33:06;;;;;;;44.83;27.00;;;6.00;73.60;;;;;;5052788;28;20292;-70
2022/03/03 08:35:37;;;;;;;45.23;26.90;;;6.00;72.80;;;;;;5057570;28;20206;-70
2022/03/03 08:38:07;;;;;;;47.70;25.90;;;5.90;72.70;;;;;;5043672;28;20229;-70
2022/03/03 08:40:36;;;;;;;44.50;24.87;;;5.90;71.80;;;;;;5049979;28;20232;-69
2022/03/03 08:43:06;;;;;;;41.00;24.20;;;6.00;71.70;;;;;;5052027;28;20206;-69
2022/03/03 08:45:35;;;;;;;42.57;25.07;;;6.00;71.30;;;;;;5059375;28;20236;-72
2022/03/03 08:48:06;;;;;;;40.07;24.10;;;6.00;70.70;;;;;;5059926;28;20240;-71
2022/03/03 08:50:35;;;;;;;34.27;21.70;;;6.20;71.10;;;;;;5058169;28;20224;-70
2022/03/03 08:53:06;;;;;;;40.53;22.00;;;6.50;69.80;;;;;;5056369;28;20275;-71
2022/03/03 08:55:34;;;;;;;36.10;21.23;;;6.80;68.20;;;;;;5053942;28;20296;-74
2022/03/03 08:58:01;;;;;;;37.03;22.00;;;7.20;68.00;;;;;;5060648;28;20283;-70
2022/03/03 09:00:30;;;;;;;33.73;20.07;;;7.50;66.40;;;;;;5056882;28;20325;-70
2022/03/03 09:03:00;;;;;;;36.80;20.83;;;7.80;64.80;;;;;;5046391;28;20252;-73
2022/03/03 09:05:27;;;;;;;35.60;20.33;;;8.10;63.60;;;;;;5059188;28;20667;-71
2022/03/03 09:07:54;;;;;;;33.97;20.37;;;8.40;62.40;;;;;;5061404;28;21413;-70
2022/03/03 09:10:22;;;;;;;30.83;19.10;;;8.70;60.90;;;;;;5053309;28;20215;-72
2022/03/03 09:12:50;;;;;;;30.87;17.97;;;8.90;59.60;;;;;;5054714;28;20284;-73
2022/03/03 09:15:17;;;;;;;30.03;17.70;;;9.10;60.50;;;;;;5058115;28;20209;-73
2022/03/03 09:17:44;;;;;;;30.23;19.23;;;9.50;59.20;;;;;;5055321;28;20213;-69
2022/03/03 09:20:14;;;;;;;29.53;18.87;;;10.70;60.00;;;;;;5059234;28;20565;-71
2022/03/03 09:22:41;;;;;;;32.10;18.33;;;13.20;54.10;;;;;;5056582;28;20678;-73
2022/03/03 09:25:10;;;;;;;28.43;17.20;;;16.30;49.10;;;;;;5059810;28;20206;-72
2022/03/03 09:27:38;;;;;;;28.98;17.77;;;19.60;41.10;;;;;;5055159;28;20210;-72
2022/03/03 09:30:06;;;;;;;29.17;19.48;;;22.30;35.30;;;;;;5057051;28;20206;-72
2022/03/03 09:32:33;;;;;;;29.55;19.65;;;24.00;32.10;;;;;;5046704;28;20198;-72
2022/03/03 09:35:00;;;;;;;25.33;18.15;;;25.50;29.60;;;;;;5050825;28;20209;-73
2022/03/03 09:37:27;;;;;;;25.63;18.88;;;26.90;28.50;;;;;;5058353;28;20701;-71
2022/03/03 09:39:54;;;;;;;24.10;17.92;;;28.40;26.80;;;;;;5052119;28;20220;-72
2022/03/03 09:42:21;;;;;;;24.42;18.90;;;29.90;25.50;;;;;;5050307;28;20218;-72
2022/03/03 09:44:49;;;;;;;25.00;18.98;;;31.20;24.30;;;;;;5060505;28;20320;-72
2022/03/03 09:47:17;;;;;;;22.50;18.95;;;32.60;23.50;;;;;;5052060;28;20655;-73
2022/03/03 09:49:44;;;;;;;24.40;18.38;;;33.30;22.70;;;;;;5059569;28;20237;-73
2022/03/03 09:52:13;;;;;;;28.50;21.17;;;33.80;22.10;;;;;;5054143;28;20674;-72
2022/03/03 09:54:41;;;;;;;26.83;20.30;;;34.20;21.60;;;;;;5066534;28;20205;-72
2022/03/03 09:57:08;;;;;;;23.83;18.33;;;34.60;21.30;;;;;;5057447;28;20227;-72
2022/03/03 09:59:35;;;;;;;26.65;18.73;;;35.20;20.90;;;;;;5057347;28;20194;-71
2022/03/03 10:02:04;;;;;;;28.75;19.02;;;35.80;20.30;;;;;;5054023;28;20309;-72
2022/03/03 10:04:32;;;;;;;25.65;18.10;;;36.40;19.80;;;;;;5056997;28;20218;-69
2022/03/03 10:07:04;;;;;;;30.30;18.38;;;36.60;19.40;;;;;;5066551;28;20231;-71
2022/03/03 10:09:31;;;;;;;28.30;18.90;;;36.60;19.00;;;;;;5056176;28;20213;-73
2022/03/03 10:12:06;;;;;;;28.40;18.95;;;36.60;19.30;;;;;;5053738;28;20753;-70
2022/03/03 10:14:35;;;;;;;26.60;19.17;;;37.10;19.00;;;;;;5056106;28;20614;-70
2022/03/03 10:17:05;;;;;;;23.05;18.55;;;37.10;18.70;;;;;;5055801;28;21038;-70
2022/03/03 10:19:32;;;;;;;25.65;18.83;;;37.30;18.70;;;;;;5065980;28;20697;-70
2022/03/03 10:22:00;;;;;;;25.33;19.35;;;37.10;18.30;;;;;;5070563;28;20230;-71
2022/03/03 10:24:29;;;;;;;22.63;18.15;;;36.80;18.40;;;;;;5060007;28;20210;-71
2022/03/03 10:27:00;;;;;;;24.42;19.45;;;36.80;18.50;;;;;;5063761;28;20209;-71
2022/03/03 10:29:28;;;;;;;25.42;18.08;;;37.40;18.50;;;;;;5054014;28;20585;-71
2022/03/03 10:31:56;;;;;;;21.88;17.80;;;38.10;18.10;;;;;;5053014;28;20255;-70
2022/03/03 10:34:28;;;;;;;20.88;17.85;;;38.00;18.00;;;;;;5063754;28;20217;-71
2022/03/03 10:36:57;;;;;;;20.25;17.42;;;38.20;18.10;;;;;;5052386;28;20229;-71
2022/03/03 10:39:24;;;;;;;23.23;17.13;;;38.40;17.70;;;;;;5051812;28;20252;-73
2022/03/03 10:41:56;;;;;;;21.13;15.90;;;37.80;18.00;;;;;;5049056;28;20210;-70
2022/03/03 10:44:28;;;;;;;20.65;16.52;;;37.60;18.10;;;;;;5058954;28;20321;-72
2022/03/03 10:47:05;;;;;;;19.55;16.90;;;37.80;18.10;;;;;;5064729;28;20298;-73
2022/03/03 10:49:34;;;;;;;21.00;18.05;;;38.30;17.90;;;;;;5051583;28;20598;-74
2022/03/03 10:52:16;;;;;;;21.33;16.80;;;39.20;17.70;;;;;;5050880;28;20198;-74
2022/03/03 10:54:51;;;;;;;23.27;17.90;;;40.00;17.30;;;;;;5058309;28;20270;-71
2022/03/03 10:57:31;;;;;;;23.42;17.05;;;40.10;17.20;;;;;;5048814;28;20253;-75
2022/03/03 10:59:59;;;;;;;19.38;16.50;;;40.30;17.10;;;;;;5059062;28;20718;-72
2022/03/03 11:02:28;;;;;;;20.27;16.17;;;40.50;17.10;;;;;;5053028;28;20293;-76
2022/03/03 11:04:57;;;;;;;18.27;16.35;;;41.00;17.10;;;;;;5054793;28;20256;-76
2022/03/03 11:07:25;;;;;;;19.50;16.15;;;41.80;16.90;;;;;;5048839;28;20210;-75
2022/03/03 11:09:52;;;;;;;17.20;15.32;;;42.50;16.70;;;;;;5052331;28;20210;-74
2022/03/03 11:12:20;;;;;;;16.83;15.02;;;42.70;16.50;;;;;;5053247;28;20210;-75
2022/03/03 11:14:47;;;;;;;16.63;14.88;;;42.80;16.60;;;;;;5053153;28;20639;-72
2022/03/03 11:17:15;;;;;;;19.20;14.98;;;42.90;16.60;;;;;;5055769;28;20228;-75
2022/03/03 11:19:42;;;;;;;17.20;15.00;;;43.00;16.50;;;;;;5059260;28;20268;-73
2022/03/03 11:22:15;;;;;;;16.98;14.73;;;42.40;16.40;;;;;;5050025;28;20337;-73
2022/03/03 11:24:42;;;;;;;17.67;15.77;;;42.10;16.50;;;;;;5051370;28;20201;-72
2022/03/03 11:27:09;;;;;;;18.98;16.95;;;41.70;16.60;;;;;;5052481;28;20210;-76
2022/03/03 11:29:38;;;;;;;20.52;17.13;;;40.80;17.10;;;;;;5059760;28;20237;-75
2022/03/03 11:32:07;;;;;;;20.30;17.90;;;40.20;17.10;;;;;;5053811;28;20202;-74
2022/03/03 11:34:44;;;;;;;19.67;17.45;;;39.00;17.90;;;;;;5050286;28;20217;-75
2022/03/03 11:37:20;;;;;;;19.55;17.50;;;38.20;18.30;;;;;;5054638;28;20264;-72
2022/03/03 11:39:49;;;;;;;21.25;18.17;;;36.00;18.00;;;;;;5057847;28;20243;-73
2022/03/03 11:42:22;;;;;;;21.60;18.33;;;32.50;19.20;;;;;;5069137;28;20209;-72
2022/03/03 11:44:50;;;;;;;20.45;17.92;;;30.40;21.50;;;;;;5055378;28;20336;-73
2022/03/03 11:47:19;;;;;;;19.63;17.33;;;29.90;22.10;;;;;;5055077;28;20862;-72
2022/03/03 11:50:12;;;;;;;18.80;16.80;;;30.40;22.40;;;;;;5059658;28;20212;-72
2022/03/03 11:52:42;;;;;;;23.33;17.52;;;32.10;21.10;;;;;;5060567;28;20194;-72
2022/03/03 11:55:32;;;;;;;20.13;17.67;;;33.40;20.50;;;;;;5070503;28;20240;-72
2022/03/03 11:58:01;;;;;;;20.88;18.45;;;34.00;19.90;;;;;;5055223;28;20275;-72
2022/03/03 12:00:29;;;;;;;19.27;17.20;;;33.70;20.20;;;;;;5059031;28;20209;-71
2022/03/03 12:03:05;;;;;;;18.73;16.73;;;34.40;19.90;;;;;;5062388;28;20210;-72
2022/03/03 12:05:39;;;;;;;21.33;17.58;;;34.90;19.70;;;;;;5056412;28;20708;-72
2022/03/03 12:08:23;;;;;;;19.83;17.83;;;35.20;19.80;;;;;;5059009;28;20198;-71
2022/03/03 12:11:05;;;;;;;20.55;17.88;;;36.20;19.40;;;;;;5065330;28;20205;-70
2022/03/03 12:13:34;;;;;;;21.30;19.00;;;37.10;19.20;;;;;;5059412;28;20240;-71
2022/03/03 12:16:17;;;;;;;20.63;18.25;;;38.20;18.80;;;;;;5046990;28;20207;-72
2022/03/03 12:18:45;;;;;;;22.42;18.00;;;39.10;18.50;;;;;;5057039;28;20282;-72
2022/03/03 12:21:27;;;;;;;20.15;18.15;;;39.70;18.30;;;;;;5060993;28;20655;-73
2022/03/03 12:24:31;;;;;;;21.48;19.27;;;39.90;17.90;;;;;;5067868;28;20214;-72
2022/03/03 12:27:17;;;;;;;21.88;18.70;;;39.80;18.00;;;;;;5048106;28;20228;-72
2022/03/03 12:29:56;;;;;;;20.83;18.73;;;39.70;18.00;;;;;;5058227;28;20203;-68
2022/03/03 12:32:28;;;;;;;24.67;19.83;;;39.20;18.30;;;;;;5054991;28;20250;-68
2022/03/03 12:34:56;;;;;;;22.80;19.55;;;37.10;17.80;;;;;;5042789;28;20245;-70
2022/03/03 12:37:23;;;;;;;25.27;19.85;;;35.00;19.60;;;;;;5048145;28;20220;-69
2022/03/03 12:39:51;;;;;;;25.73;19.00;;;34.00;19.90;;;;;;5051829;28;20730;-67
2022/03/03 12:42:20;;;;;;;21.42;19.15;;;33.60;20.20;;;;;;5051191;28;20234;-70